Sy Anulo — DD6023 — position and weather

sailwx.info

Track history (hours):
 
Tides and Currents Weather Stations Pressure Air Temp Water Temp Dewpoint Dewpoint Depression Visibility Wind Speed Wind Dir Waves Ship Positions

Sy Anulo

Last reported at 2018-Jun-02 06:46 UTC. Time now 2018-Jul-18 22:16 UTC.
Position N 37°03' W 008°12'.
Warning: this ship's position is 46 days out of date.

Length 12 m.

Type: Sailing vessel. MMSI: 211476150.

Date/timePositionNaut miles runAvg speedWind from/ knotsBaromVisibWave heightAir tempDewpointWater temp
2018-Jun-02 06:46N 37°03' W 008°12'  
2018-May-29 13:14N 37°04' W 008°17'1 5.8
2018-May-29 12:59N 37°04' W 008°19'3 5.3
2018-May-29 12:31N 37°05' W 008°22'5 5.1
2018-May-29 11:32N 37°05' W 008°28'0 4.5
2018-May-29 11:30N 37°05' W 008°28'2 4.4
2018-May-29 11:00N 37°05' W 008°31'3 6.0
2018-May-29 10:31N 37°06' W 008°35'3 6.2
2018-May-29 10:01N 37°06' W 008°39'2 0.1
2018-May-28 22:26N 37°07' W 008°40'  
2018-May-26 14:26N 37°07' W 008°40'0 0.4
2018-May-26 14:00N 37°06' W 008°40'2 3.0
2018-May-26 13:30N 37°06' W 008°39'1 1.1
2018-May-26 13:00N 37°06' W 008°38'2 3.9
2018-May-26 12:29N 37°06' W 008°36'3 5.3
2018-May-26 12:00N 37°05' W 008°32'2 4.5
2018-May-26 11:30N 37°05' W 008°30'4 6.1
2018-May-26 10:49N 37°05' W 008°24'2 6.0
2018-May-26 10:30N 37°05' W 008°22'3 6.0
2018-May-26 10:00N 37°04' W 008°18'  
Track history (hours):
 
Tides and Currents Weather Stations Pressure Air Temp Water Temp Dewpoint Dewpoint Depression Visibility Wind Speed Wind Dir Waves Ship Positions

Sy Anulo

Last reported at 2018-Jun-02 06:46 UTC. Time now 2018-Jul-18 22:16 UTC.
Position N 37°03' W 008°12'.
Warning: this ship's position is 46 days out of date.

Length 12 m.

Type: Sailing vessel. MMSI: 211476150.

Date/timePositionNaut miles runAvg speedWind from/ knotsBaromVisibWave heightAir tempDewpointWater temp
2018-Jun-02 06:46N 37°03' W 008°12'  
2018-May-29 13:14N 37°04' W 008°17'1 5.8
2018-May-29 12:59N 37°04' W 008°19'3 5.3
2018-May-29 12:31N 37°05' W 008°22'5 5.1
2018-May-29 11:32N 37°05' W 008°28'0 4.5
2018-May-29 11:30N 37°05' W 008°28'2 4.4
2018-May-29 11:00N 37°05' W 008°31'3 6.0
2018-May-29 10:31N 37°06' W 008°35'3 6.2
2018-May-29 10:01N 37°06' W 008°39'2 0.1
2018-May-28 22:26N 37°07' W 008°40'  
2018-May-26 14:26N 37°07' W 008°40'0 0.4
2018-May-26 14:00N 37°06' W 008°40'2 3.0
2018-May-26 13:30N 37°06' W 008°39'1 1.1
2018-May-26 13:00N 37°06' W 008°38'2 3.9
2018-May-26 12:29N 37°06' W 008°36'3 5.3
2018-May-26 12:00N 37°05' W 008°32'2 4.5
2018-May-26 11:30N 37°05' W 008°30'4 6.1
2018-May-26 10:49N 37°05' W 008°24'2 6.0
2018-May-26 10:30N 37°05' W 008°22'3 6.0
2018-May-26 10:00N 37°04' W 008°18'  

Dump ship's entire track history